Time;durP1;ratioP1;P1;durP2;ratioP2;P2;SDS_P1;SDS_P2;PMS_P1;PMS_P2;Temp;Humidity;BMP_temperature;BMP_pressure;BME280_temperature;BME280_humidity;BME280_pressure;Samples;Min_cycle;Max_cycle;Signal;HPM_P1;HPM_P2
2023/10/16 00:01:09;;;;;;;4.32;1.00;;;7.30;99.90;;;;;;7380137;19;20762;-65
2023/10/16 00:03:42;;;;;;;6.97;1.30;;;7.30;99.90;;;;;;7376480;19;20022;-65
2023/10/16 00:06:14;;;;;;;5.55;1.25;;;7.30;99.90;;;;;;7376880;19;20018;-64
2023/10/16 00:09:28;;;;;;;6.97;1.92;;;7.40;99.90;;;;;;7374621;19;20383;-64
2023/10/16 00:11:28;;;;;;;6.03;1.10;;;7.40;99.90;;;;;;7376763;19;20018;-61
2023/10/16 00:13:56;;;;;;;6.78;1.30;;;7.40;99.90;;;;;;7367427;19;20026;-61
2023/10/16 00:16:23;;;;;;;7.18;1.65;;;7.40;99.90;;;;;;7371498;19;20758;-61
2023/10/16 00:18:53;;;;;;;5.18;1.20;;;7.40;99.90;;;;;;7372067;19;20035;-62
2023/10/16 00:21:20;;;;;;;5.53;1.50;;;7.40;99.90;;;;;;7378942;19;20026;-61
2023/10/16 00:23:46;;;;;;;5.55;1.10;;;7.40;99.90;;;;;;7369855;19;20752;-63
2023/10/16 00:26:19;;;;;;;5.63;1.42;;;7.30;99.90;;;;;;7372136;19;20026;-60
2023/10/16 00:29:02;;;;;;;4.07;1.60;;;7.30;99.90;;;;;;7368271;19;20041;-61
2023/10/16 00:31:32;;;;;;;3.47;1.38;;;7.30;99.90;;;;;;7375088;19;20030;-61
2023/10/16 00:33:59;;;;;;;4.28;1.30;;;7.20;99.90;;;;;;7379563;19;20391;-64
2023/10/16 00:36:30;;;;;;;5.65;1.30;;;7.20;99.90;;;;;;7384228;19;20029;-64
2023/10/16 00:38:58;;;;;;;6.60;1.50;;;7.20;99.90;;;;;;7378038;19;20026;-63
2023/10/16 00:41:25;;;;;;;5.22;1.42;;;7.20;99.90;;;;;;7379119;19;20490;-64
2023/10/16 00:43:52;;;;;;;4.93;1.08;;;7.10;99.90;;;;;;7380253;19;20026;-64
2023/10/16 00:46:26;;;;;;;4.80;1.30;;;7.10;99.90;;;;;;7379934;19;20471;-63
2023/10/16 00:48:53;;;;;;;4.35;1.08;;;7.10;99.90;;;;;;7377444;19;20093;-65
2023/10/16 00:51:21;;;;;;;6.10;1.55;;;7.10;99.90;;;;;;7381536;19;20011;-64
2023/10/16 00:53:47;;;;;;;6.03;1.40;;;7.10;99.90;;;;;;7377155;19;20014;-65
2023/10/16 00:56:14;;;;;;;8.27;1.67;;;7.10;99.90;;;;;;7382235;19;20033;-64
2023/10/16 00:58:47;;;;;;;10.23;1.90;;;7.10;99.90;;;;;;7378911;19;20084;-65
2023/10/16 01:01:14;;;;;;;7.20;2.22;;;7.20;99.90;;;;;;7381146;19;20148;-63
2023/10/16 01:03:44;;;;;;;6.72;1.70;;;7.20;99.90;;;;;;7376419;19;20019;-64
2023/10/16 01:06:24;;;;;;;6.15;1.67;;;7.20;99.90;;;;;;7375713;19;20103;-63
2023/10/16 01:08:51;;;;;;;5.07;1.30;;;7.20;99.90;;;;;;7378496;19;20611;-61
2023/10/16 01:11:22;;;;;;;6.15;2.03;;;7.20;99.90;;;;;;7372251;19;20023;-61
2023/10/16 01:13:50;;;;;;;5.88;1.63;;;7.30;99.90;;;;;;7371869;19;20027;-61
2023/10/16 01:16:18;;;;;;;4.45;1.73;;;7.30;99.90;;;;;;7376274;19;20660;-63
2023/10/16 01:18:45;;;;;;;5.22;1.65;;;7.30;99.90;;;;;;7376298;19;20011;-61
2023/10/16 01:21:17;;;;;;;4.28;1.55;;;7.30;99.90;;;;;;7376895;19;20039;-64
2023/10/16 01:23:47;;;;;;;5.43;1.60;;;7.30;99.90;;;;;;7381244;19;20014;-63
2023/10/16 01:26:15;;;;;;;7.82;1.85;;;7.30;99.90;;;;;;7376558;19;20017;-64
2023/10/16 01:28:41;;;;;;;5.18;1.90;;;7.30;99.90;;;;;;7375865;19;20015;-64
2023/10/16 01:31:08;;;;;;;3.90;1.40;;;7.30;99.90;;;;;;7377786;19;20019;-60
2023/10/16 01:33:35;;;;;;;3.00;1.38;;;7.30;99.90;;;;;;7374121;19;20871;-60
2023/10/16 01:36:07;;;;;;;3.28;1.45;;;7.40;99.90;;;;;;7375058;19;20407;-60
2023/10/16 01:38:34;;;;;;;5.05;1.25;;;7.30;99.90;;;;;;7365075;19;20869;-61
2023/10/16 01:41:07;;;;;;;2.88;1.30;;;7.40;99.90;;;;;;7365102;19;20043;-61
2023/10/16 01:43:37;;;;;;;5.72;1.45;;;7.40;99.90;;;;;;7370319;19;20782;-61
2023/10/16 01:46:08;;;;;;;4.68;1.88;;;7.50;99.90;;;;;;7363991;19;20018;-60
2023/10/16 01:48:44;;;;;;;7.43;1.75;;;7.50;99.90;;;;;;7370020;19;20114;-60
2023/10/16 01:51:19;;;;;;;5.80;1.70;;;7.50;99.90;;;;;;7363212;19;20054;-60
2023/10/16 01:53:47;;;;;;;4.43;1.40;;;7.50;99.90;;;;;;7368469;19;20407;-60
2023/10/16 01:56:14;;;;;;;5.45;1.42;;;7.50;99.90;;;;;;7370017;19;20026;-60
2023/10/16 01:58:45;;;;;;;8.38;2.03;;;7.60;99.90;;;;;;7364808;19;20022;-60
2023/10/16 02:01:17;;;;;;;3.72;1.20;;;7.60;99.90;;;;;;7356953;19;20031;-60
2023/10/16 02:03:47;;;;;;;6.80;1.65;;;7.60;99.90;;;;;;7369803;19;20078;-60
2023/10/16 02:06:18;;;;;;;5.40;1.80;;;7.60;99.90;;;;;;7368700;19;20091;-60
2023/10/16 02:08:47;;;;;;;4.72;1.77;;;7.60;99.90;;;;;;7363257;19;20725;-60
2023/10/16 02:11:16;;;;;;;5.38;1.65;;;7.60;99.90;;;;;;7366250;19;20043;-60
2023/10/16 02:13:43;;;;;;;5.03;1.60;;;7.60;99.90;;;;;;7370197;19;20018;-60
2023/10/16 02:16:12;;;;;;;5.45;1.85;;;7.50;99.90;;;;;;7368028;19;20061;-60
2023/10/16 02:18:44;;;;;;;6.63;2.47;;;7.50;99.90;;;;;;7364846;19;20738;-60
2023/10/16 02:21:12;;;;;;;6.97;2.58;;;7.50;99.90;;;;;;7367615;19;20048;-60
2023/10/16 02:23:39;;;;;;;5.72;2.22;;;7.40;99.90;;;;;;7373222;19;20034;-64
2023/10/16 02:26:09;;;;;;;8.00;2.47;;;7.40;99.90;;;;;;7374286;19;20018;-64
2023/10/16 02:28:46;;;;;;;6.28;2.25;;;7.30;99.90;;;;;;7374526;19;20022;-64
2023/10/16 02:31:14;;;;;;;8.10;2.50;;;7.20;99.90;;;;;;7371353;19;20039;-63
2023/10/16 02:33:50;;;;;;;7.22;2.70;;;7.20;99.90;;;;;;7374309;19;20023;-60
2023/10/16 02:36:18;;;;;;;7.93;2.58;;;7.20;99.90;;;;;;7368508;19;20478;-60
2023/10/16 02:38:47;;;;;;;5.25;2.80;;;7.20;99.90;;;;;;7368621;19;20022;-60
2023/10/16 02:41:20;;;;;;;6.15;3.17;;;7.20;99.90;;;;;;7368237;19;20022;-60
2023/10/16 02:43:49;;;;;;;10.43;4.03;;;7.20;99.90;;;;;;7370583;19;20024;-61
2023/10/16 02:46:21;;;;;;;11.95;3.58;;;7.20;99.90;;;;;;7370941;19;20033;-61
2023/10/16 02:48:48;;;;;;;;;;;7.30;99.90;;;;;;7366706;19;20046;-61
2023/10/16 02:51:17;;;;;;;6.90;3.95;;;7.30;99.90;;;;;;7369178;19;19930;-61
2023/10/16 02:53:43;;;;;;;6.53;3.95;;;7.30;99.90;;;;;;7372907;19;20022;-61
2023/10/16 02:58:42;;;;;;;8.07;4.07;;;7.20;99.90;;;;;;7374083;19;20100;-59
2023/10/16 03:01:18;;;;;;;11.10;4.82;;;7.10;99.90;;;;;;7373216;19;20077;-60
2023/10/16 03:03:46;;;;;;;10.93;5.00;;;7.00;99.90;;;;;;7379722;19;20022;-65
2023/10/16 03:06:14;;;;;;;7.35;4.80;;;7.00;99.90;;;;;;7374050;19;20022;-65
2023/10/16 03:08:45;;;;;;;10.05;5.57;;;6.90;99.90;;;;;;7378687;19;20919;-65
2023/10/16 03:11:13;;;;;;;10.13;5.15;;;6.90;99.90;;;;;;7375009;19;20023;-65
2023/10/16 03:13:40;;;;;;;11.73;5.53;;;6.80;99.90;;;;;;7378231;19;20053;-65
2023/10/16 03:19:09;;;;;;;11.95;6.28;;;6.80;99.90;;;;;;7376535;19;20604;-64
2023/10/16 03:21:39;;;;;;;9.82;6.07;;;6.70;99.90;;;;;;7380159;19;20022;-64
2023/10/16 03:24:07;;;;;;;11.75;6.57;;;6.60;99.90;;;;;;7377440;19;20038;-65
2023/10/16 03:26:34;;;;;;;14.77;7.55;;;6.60;99.90;;;;;;7378544;19;20150;-63
2023/10/16 03:29:05;;;;;;;10.63;6.60;;;6.60;99.90;;;;;;7378659;19;20022;-63
2023/10/16 03:31:36;;;;;;;10.50;6.85;;;6.70;99.90;;;;;;7379122;19;20022;-65
2023/10/16 03:34:02;;;;;;;12.75;7.45;;;6.80;99.90;;;;;;7379247;19;20014;-65
2023/10/16 03:36:30;;;;;;;17.98;9.25;;;6.80;99.90;;;;;;7375414;19;20018;-60
2023/10/16 03:38:57;;;;;;;12.23;7.85;;;6.90;99.90;;;;;;7374987;19;20051;-64
2023/10/16 03:43:58;;;;;;;12.98;8.43;;;7.00;99.90;;;;;;7372769;19;20018;-61
2023/10/16 03:46:28;;;;;;;10.98;7.68;;;7.00;99.90;;;;;;7374046;19;20109;-65
2023/10/16 03:48:55;;;;;;;13.93;7.75;;;7.00;99.90;;;;;;7376442;19;20053;-64
2023/10/16 03:51:21;;;;;;;15.32;7.57;;;7.10;99.90;;;;;;7374271;19;20029;-63
2023/10/16 03:53:52;;;;;;;10.80;7.35;;;7.10;99.90;;;;;;7373999;19;20030;-63
2023/10/16 03:56:20;;;;;;;9.40;7.13;;;7.20;99.90;;;;;;7375477;19;20050;-64
2023/10/16 03:58:53;;;;;;;13.23;7.80;;;7.20;99.90;;;;;;7374514;19;20018;-64
2023/10/16 04:01:23;;;;;;;11.70;7.70;;;7.20;99.90;;;;;;7373541;19;20093;-60
2023/10/16 04:03:51;;;;;;;15.05;8.68;;;7.20;99.90;;;;;;7374982;19;20078;-65
2023/10/16 04:06:21;;;;;;;11.38;7.30;;;7.30;99.90;;;;;;7375521;19;20425;-62
2023/10/16 04:08:49;;;;;;;12.20;7.78;;;7.30;99.90;;;;;;7373388;19;20032;-62
2023/10/16 04:11:17;;;;;;;11.73;7.22;;;7.30;99.90;;;;;;7374149;19;20525;-64
2023/10/16 04:13:49;;;;;;;15.05;7.05;;;7.40;99.90;;;;;;7370209;19;20018;-60
2023/10/16 04:18:52;;;;;;;10.55;6.35;;;7.40;99.90;;;;;;7371354;19;20620;-65
2023/10/16 04:24:16;;;;;;;13.90;5.93;;;7.50;99.90;;;;;;7374170;19;20117;-61
2023/10/16 04:26:48;;;;;;;11.40;6.65;;;7.50;99.90;;;;;;7371622;19;20086;-61
2023/10/16 04:31:44;;;;;;;11.00;6.28;;;7.50;99.90;;;;;;7370236;19;20056;-61
2023/10/16 04:36:53;;;;;;;11.10;5.70;;;7.50;99.90;;;;;;7370863;19;20018;-66
2023/10/16 04:47:48;;;;;;;9.73;5.32;;;7.50;99.90;;;;;;7373134;19;20026;-63
2023/10/16 04:50:27;;;;;;;8.82;5.35;;;7.50;99.90;;;;;;7373724;19;20026;-65
2023/10/16 05:15:20;;;;;;;12.43;4.78;;;7.60;99.90;;;;;;7388381;19;20021;-63
2023/10/16 06:14:58;;;;;;;10.30;4.63;;;7.60;99.90;;;;;;7368304;19;20091;-60
2023/10/16 06:17:25;;;;;;;10.25;5.18;;;7.70;99.90;;;;;;7372622;19;20019;-59
2023/10/16 06:19:51;;;;;;;9.88;5.18;;;7.70;99.90;;;;;;7371449;19;20025;-59
2023/10/16 06:22:17;;;;;;;10.65;4.38;;;7.70;99.90;;;;;;7375012;19;20054;-64
2023/10/16 06:24:47;;;;;;;13.80;5.07;;;7.80;99.90;;;;;;7373327;19;20021;-63
2023/10/16 06:27:19;;;;;;;11.43;4.70;;;7.70;99.90;;;;;;7373471;19;20022;-61
2023/10/16 06:29:53;;;;;;;11.13;4.72;;;7.70;99.90;;;;;;7380266;19;20026;-63
2023/10/16 06:32:35;;;;;;;12.32;4.45;;;7.70;99.90;;;;;;7383125;19;20044;-64
2023/10/16 06:35:02;;;;;;;10.30;4.47;;;7.80;99.90;;;;;;7381824;19;20101;-60
2023/10/16 06:37:31;;;;;;;10.85;4.57;;;7.90;99.90;;;;;;7384819;19;20035;-63
2023/10/16 06:40:01;;;;;;;9.05;4.15;;;7.90;99.90;;;;;;7383041;19;20026;-64
2023/10/16 06:42:28;;;;;;;10.32;4.65;;;8.00;99.90;;;;;;7374465;19;20025;-60
2023/10/16 06:44:54;;;;;;;10.77;4.07;;;8.10;99.90;;;;;;7377645;19;20011;-64
2023/10/16 06:47:34;;;;;;;11.55;4.07;;;8.10;99.90;;;;;;7381219;19;20022;-64
2023/10/16 06:50:02;;;;;;;6.57;4.00;;;8.20;99.90;;;;;;7377358;19;20042;-63
2023/10/16 06:52:28;;;;;;;9.55;4.53;;;8.40;99.90;;;;;;7382902;19;20086;-61
2023/10/16 06:54:54;;;;;;;13.50;4.28;;;8.50;99.90;;;;;;7383493;19;20018;-61
2023/10/16 06:57:23;;;;;;;12.43;3.65;;;8.60;99.90;;;;;;7386409;19;20030;-61
2023/10/16 06:59:50;;;;;;;8.35;3.95;;;8.60;99.90;;;;;;7379563;19;20216;-61
2023/10/16 07:02:19;;;;;;;9.52;3.58;;;8.60;99.90;;;;;;7381611;19;20014;-62
2023/10/16 07:04:47;;;;;;;8.68;3.92;;;8.70;99.90;;;;;;7377533;19;20018;-64
2023/10/16 07:07:14;;;;;;;9.70;3.65;;;8.70;99.90;;;;;;7378487;19;20761;-63
2023/10/16 07:09:47;;;;;;;12.57;4.47;;;8.80;99.90;;;;;;7379109;19;20034;-60
2023/10/16 07:12:16;;;;;;;8.35;3.60;;;8.80;99.90;;;;;;7378084;19;20019;-63
2023/10/16 07:14:55;;;;;;;7.15;3.38;;;8.80;99.90;;;;;;7374831;19;20021;-61
2023/10/16 07:17:24;;;;;;;7.43;3.88;;;8.90;99.90;;;;;;7379463;19;20044;-60
2023/10/16 07:19:58;;;;;;;9.23;3.67;;;8.90;99.90;;;;;;7379960;19;20014;-64
2023/10/16 07:22:31;;;;;;;7.35;3.65;;;8.90;99.90;;;;;;7379258;19;20045;-63
2023/10/16 07:25:47;;;;;;;8.48;4.35;;;8.90;99.90;;;;;;7376294;19;20110;-63
2023/10/16 07:28:00;;;;;;;9.60;3.53;;;9.00;99.90;;;;;;7375985;19;20022;-64
2023/10/16 07:30:27;;;;;;;7.30;3.15;;;9.00;99.90;;;;;;7380646;19;20620;-62
2023/10/16 07:32:55;;;;;;;9.80;2.92;;;9.10;99.90;;;;;;7376336;19;20023;-66
2023/10/16 07:35:21;;;;;;;8.48;2.75;;;9.20;99.90;;;;;;7381078;19;20049;-60
2023/10/16 07:37:54;;;;;;;8.55;2.83;;;9.30;99.90;;;;;;7381200;19;20018;-61
2023/10/16 07:40:25;;;;;;;7.28;2.95;;;9.50;99.90;;;;;;7380804;19;20017;-61
2023/10/16 07:42:53;;;;;;;6.10;3.42;;;9.70;99.90;;;;;;7380528;19;20115;-62
2023/10/16 07:45:20;;;;;;;5.97;2.65;;;10.00;99.90;;;;;;7382946;19;20098;-61
2023/10/16 07:47:48;;;;;;;7.63;2.30;;;10.00;99.90;;;;;;7382396;19;20053;-62
2023/10/16 07:50:17;;;;;;;7.05;2.50;;;10.20;99.90;;;;;;7382462;19;20022;-61
2023/10/16 07:52:43;;;;;;;6.60;2.35;;;10.20;99.90;;;;;;7385396;19;20018;-64
2023/10/16 07:55:19;;;;;;;7.70;2.65;;;10.20;99.90;;;;;;7384092;19;20449;-61
2023/10/16 07:57:48;;;;;;;7.32;2.38;;;10.30;99.90;;;;;;7383104;19;20770;-61
2023/10/16 08:00:14;;;;;;;5.93;2.20;;;10.70;99.90;;;;;;7382949;19;20470;-64
2023/10/16 08:02:47;;;;;;;5.20;2.53;;;10.90;99.90;;;;;;7380557;19;20006;-62
2023/10/16 08:05:15;;;;;;;6.63;1.90;;;10.90;99.90;;;;;;7379002;19;20027;-68
2023/10/16 08:07:47;;;;;;;3.88;1.90;;;10.90;99.90;;;;;;7380950;19;20017;-61
2023/10/16 08:10:46;;;;;;;;;;;10.80;99.90;;;;;;7388021;19;20016;-62
2023/10/16 08:13:12;;;;;;;5.75;2.13;;;10.70;99.90;;;;;;7384657;19;19917;-61
2023/10/16 08:15:46;;;;;;;6.43;1.60;;;10.80;99.90;;;;;;7384492;19;20478;-64
2023/10/16 08:18:13;;;;;;;8.30;2.25;;;10.80;99.90;;;;;;7385167;19;20052;-61
2023/10/16 08:23:25;;;;;;;4.95;1.80;;;10.90;99.90;;;;;;7379000;19;20043;-62
2023/10/16 08:25:51;;;;;;;4.97;1.60;;;11.00;99.90;;;;;;7382679;19;20018;-62
2023/10/16 08:28:21;;;;;;;4.43;1.88;;;11.10;99.90;;;;;;7380480;19;20027;-62
2023/10/16 08:30:49;;;;;;;4.00;1.40;;;11.20;99.90;;;;;;7384527;19;20771;-63
2023/10/16 08:33:19;;;;;;;6.38;1.63;;;11.40;99.90;;;;;;7374684;19;20652;-65
2023/10/16 08:35:45;;;;;;;3.97;1.20;;;12.20;99.90;;;;;;7379219;19;20482;-62
2023/10/16 08:38:20;;;;;;;4.97;1.77;;;12.70;99.90;;;;;;7382565;19;20014;-64
2023/10/16 08:40:57;;;;;;;6.32;1.30;;;13.30;99.90;;;;;;7377546;19;20018;-63
2023/10/16 08:43:39;;;;;;;6.03;1.55;;;13.40;99.90;;;;;;7378731;19;20021;-67
2023/10/16 08:46:18;;;;;;;5.35;1.45;;;13.20;99.90;;;;;;7378366;19;20019;-61
2023/10/16 08:48:46;;;;;;;5.88;1.20;;;13.10;99.90;;;;;;7381178;19;20022;-61
2023/10/16 08:51:16;;;;;;;4.88;1.10;;;13.20;99.90;;;;;;7381448;19;20015;-61
2023/10/16 08:53:44;;;;;;;3.53;1.08;;;13.90;99.90;;;;;;7379741;19;20030;-61
2023/10/16 08:56:12;;;;;;;3.95;1.25;;;14.50;99.90;;;;;;7383999;19;20022;-61
2023/10/16 08:58:44;;;;;;;3.72;1.20;;;14.90;99.90;;;;;;7384074;19;20742;-62
2023/10/16 09:01:12;;;;;;;;;;;15.40;99.90;;;;;;7382911;19;20014;-61
2023/10/16 09:03:44;;;;;;;5.90;1.40;;;15.80;99.90;;;;;;7383850;19;19919;-61
2023/10/16 09:06:22;;;;;;;5.45;1.25;;;15.70;99.90;;;;;;7378894;19;20026;-63
2023/10/16 09:08:54;;;;;;;5.30;1.20;;;15.60;99.90;;;;;;7378464;19;20111;-63
2023/10/16 09:11:20;;;;;;;4.55;1.40;;;15.30;99.90;;;;;;7379435;19;20036;-63
2023/10/16 09:13:51;;;;;;;7.60;1.33;;;15.10;99.90;;;;;;7376768;19;20018;-64
2023/10/16 09:16:23;;;;;;;4.45;1.40;;;14.70;99.90;;;;;;7377019;19;20007;-63
2023/10/16 09:18:51;;;;;;;6.93;1.50;;;14.10;99.90;;;;;;7379257;19;20910;-63
2023/10/16 09:21:24;;;;;;;8.18;1.15;;;13.80;99.90;;;;;;7374821;19;20019;-63
2023/10/16 09:23:53;;;;;;;6.57;1.88;;;13.60;99.90;;;;;;7375373;19;20006;-63
2023/10/16 09:26:28;;;;;;;5.35;1.35;;;13.40;99.90;;;;;;7376564;19;20037;-63
2023/10/16 09:29:03;;;;;;;5.13;1.20;;;13.10;99.90;;;;;;7377715;19;20466;-63
2023/10/16 09:31:30;;;;;;;4.15;1.35;;;12.80;99.90;;;;;;7375416;19;20376;-64
2023/10/16 09:33:56;;;;;;;7.57;1.40;;;12.70;99.90;;;;;;7377218;19;20557;-60
2023/10/16 09:36:22;;;;;;;5.38;1.65;;;12.70;99.90;;;;;;7377774;19;20010;-61
2023/10/16 09:38:56;;;;;;;8.65;1.70;;;12.70;99.90;;;;;;7379226;19;20760;-61
2023/10/16 09:46:57;;;;;;;5.53;1.45;;;13.10;99.90;;;;;;7368735;19;20833;-63
2023/10/16 09:49:24;;;;;;;7.22;1.40;;;13.20;99.90;;;;;;7370424;19;20018;-63
2023/10/16 09:51:59;;;;;;;5.35;1.42;;;13.30;99.90;;;;;;7375772;19;20026;-61
2023/10/16 09:54:29;;;;;;;3.08;1.00;;;13.30;99.90;;;;;;7376307;19;20029;-61
2023/10/16 09:56:59;;;;;;;6.88;1.60;;;13.30;99.90;;;;;;7378013;19;20015;-64
2023/10/16 09:59:32;;;;;;;7.30;1.40;;;13.40;99.90;;;;;;7377284;19;20025;-61
2023/10/16 10:02:05;;;;;;;7.57;1.63;;;13.40;99.90;;;;;;7382181;19;20018;-62
2023/10/16 10:04:35;;;;;;;7.30;1.73;;;13.50;99.90;;;;;;7387905;19;20022;-62
2023/10/16 10:08:00;;;;;;;6.85;1.20;;;14.00;99.90;;;;;;7384323;19;20387;-63
2023/10/16 10:10:40;;;;;;;7.57;1.30;;;14.70;99.90;;;;;;7386581;19;20019;-61
2023/10/16 10:12:56;;;;;;;5.68;1.33;;;15.40;99.90;;;;;;7389663;19;20011;-61
2023/10/16 10:15:33;;;;;;;5.35;1.35;;;16.20;99.90;;;;;;7382606;19;20063;-64
2023/10/16 10:18:31;;;;;;;7.25;1.55;;;16.60;99.90;;;;;;7387808;19;20010;-61
2023/10/16 10:20:48;;;;;;;6.63;1.38;;;17.10;99.90;;;;;;7387158;19;20023;-61
2023/10/16 10:23:15;;;;;;;8.88;1.58;;;17.20;99.90;;;;;;7385508;19;20015;-60
2023/10/16 10:25:44;;;;;;;6.72;1.42;;;17.10;99.90;;;;;;7385441;19;20018;-61
2023/10/16 10:28:25;;;;;;;4.75;1.33;;;17.10;99.90;;;;;;7386215;19;20086;-61
2023/10/16 10:31:02;;;;;;;5.03;1.20;;;16.70;99.90;;;;;;7384256;19;20027;-61
2023/10/16 10:33:43;;;;;;;6.25;1.50;;;16.50;99.90;;;;;;7386756;19;20031;-63
2023/10/16 10:36:28;;;;;;;7.22;1.33;;;16.20;99.90;;;;;;7385169;19;20051;-60
2023/10/16 10:39:24;;;;;;;6.63;1.40;;;15.80;99.90;;;;;;7387724;19;20503;-61
2023/10/16 10:41:55;;;;;;;6.43;1.40;;;15.40;99.90;;;;;;7385972;19;20078;-62
2023/10/16 10:44:32;;;;;;;5.45;1.40;;;14.80;99.90;;;;;;7392052;19;20029;-64
2023/10/16 10:47:02;;;;;;;7.03;1.38;;;14.30;99.90;;;;;;7397032;19;20419;-63
2023/10/16 10:49:35;;;;;;;5.85;1.00;;;13.90;99.90;;;;;;7396812;19;21008;-64
2023/10/16 10:52:04;;;;;;;6.88;1.20;;;13.70;99.90;;;;;;7396601;19;20015;-64
2023/10/16 10:54:31;;;;;;;5.50;1.35;;;13.60;99.90;;;;;;7395205;19;20018;-63
2023/10/16 10:57:07;;;;;;;7.82;1.73;;;13.50;99.90;;;;;;7396595;19;20392;-64
2023/10/16 10:59:41;;;;;;;6.15;1.48;;;13.50;99.90;;;;;;7397604;19;20042;-64
2023/10/16 11:04:59;;;;;;;4.65;1.23;;;13.60;99.90;;;;;;7396628;19;20021;-63
2023/10/16 11:07:39;;;;;;;9.02;1.60;;;13.60;99.90;;;;;;7393511;19;20098;-63
2023/10/16 11:10:06;;;;;;;5.22;1.13;;;13.80;99.90;;;;;;7396697;19;20014;-64
2023/10/16 11:12:33;;;;;;;5.30;1.25;;;14.20;99.90;;;;;;7395233;19;20010;-64
2023/10/16 11:15:02;;;;;;;3.63;1.20;;;14.40;99.90;;;;;;7390191;19;20485;-63
2023/10/16 11:17:36;;;;;;;4.40;1.17;;;14.80;99.90;;;;;;7392378;19;20011;-64
2023/10/16 11:22:46;;;;;;;5.50;1.25;;;15.70;99.90;;;;;;7394313;19;20015;-63
2023/10/16 11:25:14;;;;;;;4.47;1.40;;;16.20;99.90;;;;;;7389786;19;20665;-62
2023/10/16 11:27:43;;;;;;;6.22;1.38;;;16.10;99.90;;;;;;7387266;19;20019;-62
2023/10/16 11:30:14;;;;;;;4.82;1.50;;;16.40;99.90;;;;;;7386442;19;20026;-62
2023/10/16 11:32:42;;;;;;;5.75;0.98;;;16.40;99.90;;;;;;7381983;19;20485;-62
2023/10/16 11:35:15;;;;;;;6.63;1.42;;;16.50;99.90;;;;;;7383928;19;20015;-60
2023/10/16 11:37:49;;;;;;;5.90;1.15;;;16.60;99.90;;;;;;7384309;19;20035;-62
2023/10/16 11:40:19;;;;;;;5.72;1.60;;;16.60;99.90;;;;;;7382895;19;20516;-65
2023/10/16 11:42:46;;;;;;;3.85;1.17;;;16.70;99.90;;;;;;7382648;19;20019;-64
2023/10/16 11:45:19;;;;;;;4.55;1.13;;;16.60;99.90;;;;;;7384959;19;20014;-66
2023/10/16 11:48:18;;;;;;;4.90;1.42;;;16.70;99.90;;;;;;7382283;19;20521;-65
2023/10/16 11:50:50;;;;;;;8.48;7.60;;;16.90;99.90;;;;;;7384802;19;20048;-64
2023/10/16 11:53:25;;;;;;;5.03;1.10;;;17.20;99.90;;;;;;7381912;19;20529;-64
2023/10/16 11:55:51;;;;;;;7.90;1.40;;;16.70;99.90;;;;;;7382595;19;20010;-65
2023/10/16 11:58:18;;;;;;;8.90;1.33;;;16.80;99.90;;;;;;7378186;19;20040;-64
2023/10/16 12:00:57;;;;;;;6.15;1.48;;;16.40;99.90;;;;;;7381030;19;20025;-65
2023/10/16 12:03:23;;;;;;;5.13;1.20;;;16.50;99.90;;;;;;7380448;19;20018;-62
2023/10/16 12:05:50;;;;;;;7.70;1.58;;;16.40;99.90;;;;;;7383849;19;20018;-62
2023/10/16 12:08:18;;;;;;;6.50;1.20;;;16.40;99.90;;;;;;7382766;19;20018;-62
2023/10/16 12:10:46;;;;;;;6.63;1.52;;;16.50;99.90;;;;;;7387362;19;20018;-62
2023/10/16 12:13:16;;;;;;;4.20;1.08;;;16.00;99.90;;;;;;7384979;19;20431;-62
2023/10/16 12:15:49;;;;;;;7.25;1.38;;;16.30;99.90;;;;;;7384432;19;20010;-62
2023/10/16 12:18:29;;;;;;;5.30;1.40;;;16.30;99.90;;;;;;7383678;19;20026;-61
2023/10/16 12:21:04;;;;;;;5.45;1.35;;;16.50;99.90;;;;;;7383749;19;20014;-61
2023/10/16 12:23:36;;;;;;;5.70;1.15;;;16.20;99.90;;;;;;7385116;19;20007;-63
2023/10/16 12:26:07;;;;;;;5.03;1.05;;;16.20;99.90;;;;;;7380967;19;20014;-61
2023/10/16 12:28:33;;;;;;;6.53;1.47;;;16.20;99.90;;;;;;7381645;19;20111;-62
2023/10/16 12:31:02;;;;;;;10.75;1.58;;;16.00;99.90;;;;;;7384157;19;20041;-61
2023/10/16 12:33:31;;;;;;;4.93;1.30;;;15.80;99.90;;;;;;7384443;19;20010;-63
2023/10/16 12:36:00;;;;;;;5.50;1.20;;;15.80;99.90;;;;;;7385184;19;20770;-64
2023/10/16 12:38:27;;;;;;;6.20;1.00;;;15.90;99.90;;;;;;7376151;19;20015;-65
2023/10/16 12:40:55;;;;;;;2.85;1.00;;;16.00;99.90;;;;;;7372903;19;20033;-65
2023/10/16 12:43:25;;;;;;;4.00;0.90;;;15.90;99.90;;;;;;7376518;19;20763;-65
2023/10/16 12:45:53;;;;;;;4.68;1.20;;;16.10;99.90;;;;;;7378146;19;20021;-65
2023/10/16 12:48:22;;;;;;;5.03;1.10;;;16.00;99.90;;;;;;7383462;19;20019;-64
2023/10/16 12:50:49;;;;;;;6.50;1.02;;;16.00;99.90;;;;;;7376799;19;21930;-64
2023/10/16 12:53:16;;;;;;;4.65;1.33;;;15.90;99.90;;;;;;7379009;19;20498;-62
2023/10/16 12:55:49;;;;;;;4.18;0.90;;;15.90;99.90;;;;;;7379880;19;20082;-62
2023/10/16 12:58:18;;;;;;;4.78;1.30;;;16.20;99.90;;;;;;7380972;19;20013;-63
2023/10/16 13:00:46;;;;;;;7.43;1.70;;;16.40;99.90;;;;;;7382807;19;20022;-64
2023/10/16 13:03:15;;;;;;;6.72;0.98;;;16.90;99.90;;;;;;7382294;19;20015;-63
2023/10/16 13:05:42;;;;;;;5.47;1.30;;;17.00;99.90;;;;;;7382031;19;20017;-63
2023/10/16 13:08:09;;;;;;;5.70;1.27;;;17.20;99.90;;;;;;7381270;19;20050;-63
2023/10/16 13:10:39;;;;;;;7.15;1.42;;;17.10;99.90;;;;;;7380301;19;20022;-63
2023/10/16 13:13:06;;;;;;;4.63;1.38;;;17.00;99.90;;;;;;7382607;19;20589;-64
2023/10/16 13:15:32;;;;;;;5.70;1.40;;;16.90;99.90;;;;;;7380338;19;20761;-65
2023/10/16 13:18:00;;;;;;;4.47;1.10;;;16.80;99.90;;;;;;7381026;19;20010;-64
2023/10/16 13:20:27;;;;;;;5.50;1.25;;;16.70;99.90;;;;;;7378379;19;20029;-62
2023/10/16 13:22:56;;;;;;;3.17;1.13;;;16.70;99.90;;;;;;7378404;19;20014;-64
2023/10/16 13:25:23;;;;;;;5.13;1.30;;;16.60;99.90;;;;;;7382021;19;20054;-63
2023/10/16 13:27:51;;;;;;;4.60;1.20;;;16.70;99.90;;;;;;7379592;19;20031;-62
2023/10/16 13:30:18;;;;;;;12.32;9.23;;;16.60;99.90;;;;;;7380386;19;20018;-64
2023/10/16 13:32:48;;;;;;;2.83;1.20;;;16.50;99.90;;;;;;7390590;19;20015;-65
2023/10/16 13:35:20;;;;;;;4.65;1.30;;;16.40;99.90;;;;;;7386904;19;20006;-66
2023/10/16 13:37:48;;;;;;;7.63;1.08;;;16.40;99.90;;;;;;7389009;19;20025;-63
2023/10/16 13:40:24;;;;;;;5.35;1.10;;;16.40;99.90;;;;;;7387448;19;20082;-64
2023/10/16 13:42:54;;;;;;;6.82;1.80;;;16.60;99.90;;;;;;7389016;19;20022;-64
2023/10/16 13:45:21;;;;;;;6.38;1.33;;;16.70;99.90;;;;;;7389641;19;20007;-65
2023/10/16 13:47:51;;;;;;;16.98;9.35;;;16.70;99.90;;;;;;7385489;19;20367;-65
2023/10/16 13:50:25;;;;;;;4.43;1.08;;;17.00;99.90;;;;;;7388628;19;20018;-64
2023/10/16 13:52:52;;;;;;;14.68;8.90;;;16.90;99.90;;;;;;7389808;19;20522;-64
2023/10/16 13:55:20;;;;;;;26.45;18.27;;;17.10;99.90;;;;;;7387891;19;20378;-65
2023/10/16 13:57:49;;;;;;;5.38;1.38;;;16.90;99.90;;;;;;7385092;19;20022;-65
2023/10/16 14:00:29;;;;;;;6.40;1.67;;;16.80;99.90;;;;;;7385973;19;20023;-65
2023/10/16 14:03:17;;;;;;;8.93;1.63;;;16.70;99.90;;;;;;7386384;19;20019;-64
2023/10/16 14:05:48;;;;;;;7.82;2.28;;;16.70;99.90;;;;;;7388395;19;20031;-64
2023/10/16 14:08:17;;;;;;;13.27;5.55;;;16.40;99.90;;;;;;7384664;19;20011;-64
2023/10/16 14:10:46;;;;;;;19.73;12.20;;;16.40;99.90;;;;;;7388614;19;20031;-66
2023/10/16 14:13:19;;;;;;;7.53;2.00;;;16.30;99.90;;;;;;7384921;19;20086;-64
2023/10/16 14:15:50;;;;;;;7.05;1.52;;;16.30;99.90;;;;;;7370699;19;20011;-64
2023/10/16 14:18:21;;;;;;;7.13;1.60;;;16.30;99.90;;;;;;7375741;19;20015;-64
2023/10/16 14:20:48;;;;;;;4.32;1.15;;;16.40;99.90;;;;;;7380763;19;20018;-65
2023/10/16 14:23:28;;;;;;;4.50;1.10;;;16.50;99.90;;;;;;7384749;19;20140;-65
2023/10/16 14:25:58;;;;;;;8.85;1.45;;;16.60;99.90;;;;;;7379744;19;20635;-64
2023/10/16 14:28:35;;;;;;;7.22;1.10;;;16.50;99.90;;;;;;7383570;19;20466;-65
2023/10/16 14:31:08;;;;;;;5.28;1.75;;;16.40;99.90;;;;;;7383941;19;20014;-65
2023/10/16 14:33:36;;;;;;;4.28;2.03;;;16.00;99.90;;;;;;7383467;19;20025;-65
2023/10/16 14:36:09;;;;;;;7.97;1.67;;;15.90;99.90;;;;;;7385828;19;20019;-65
2023/10/16 14:38:37;;;;;;;6.57;1.92;;;16.00;99.90;;;;;;7386240;19;20526;-65
2023/10/16 14:41:06;;;;;;;9.82;3.20;;;16.10;99.90;;;;;;7385757;19;20466;-65
2023/10/16 14:43:36;;;;;;;6.97;1.45;;;16.30;99.90;;;;;;7378393;19;20658;-65
2023/10/16 14:46:07;;;;;;;8.52;3.38;;;16.40;99.90;;;;;;7371250;19;20039;-65
2023/10/16 14:48:34;;;;;;;7.90;3.00;;;16.60;99.90;;;;;;7371155;19;20741;-65
2023/10/16 14:51:00;;;;;;;5.18;1.90;;;16.80;99.90;;;;;;7386165;19;20923;-64
2023/10/16 14:53:28;;;;;;;5.43;1.20;;;17.20;99.90;;;;;;7376254;19;20026;-65
2023/10/16 14:55:55;;;;;;;6.93;1.90;;;17.40;99.90;;;;;;7381722;19;20179;-65
2023/10/16 14:58:21;;;;;;;5.95;1.63;;;17.70;99.90;;;;;;7376338;19;20027;-65
2023/10/16 15:00:51;;;;;;;6.50;1.55;;;17.80;99.90;;;;;;7378305;19;20025;-62
2023/10/16 15:03:18;;;;;;;5.78;1.40;;;17.80;99.90;;;;;;7378659;19;20022;-62
2023/10/16 15:05:45;;;;;;;5.78;1.02;;;17.80;99.90;;;;;;7387480;19;20028;-62
2023/10/16 15:08:12;;;;;;;7.55;1.67;;;17.50;99.90;;;;;;7379676;19;20070;-63